createdAt,value
2018-08-06T00:00:33.196Z,1.80
2018-08-06T00:03:03.244Z,1.50
2018-08-06T00:05:33.299Z,1.70
2018-08-06T00:08:03.387Z,1.33
2018-08-06T00:10:33.538Z,1.67
2018-08-06T00:13:04.281Z,1.77
2018-08-06T00:15:34.408Z,1.47
2018-08-06T00:18:04.476Z,1.50
2018-08-06T00:20:34.593Z,1.80
2018-08-06T00:23:04.448Z,1.57
2018-08-06T00:25:34.413Z,1.63
2018-08-06T00:28:10.482Z,1.80
2018-08-06T00:30:40.440Z,1.83
2018-08-06T00:33:10.513Z,2.10
2018-08-06T00:35:40.538Z,1.67
2018-08-06T00:38:10.555Z,1.77
2018-08-06T00:40:40.612Z,1.87
2018-08-06T00:43:10.510Z,2.13
2018-08-06T00:45:40.864Z,1.70
2018-08-06T00:48:10.926Z,2.20
2018-08-06T00:50:40.842Z,2.00
2018-08-06T00:53:11.076Z,2.20
2018-08-06T00:55:41.298Z,1.90
2018-08-06T00:58:11.209Z,2.00
2018-08-06T01:00:41.220Z,2.00
2018-08-06T01:03:11.184Z,2.00
2018-08-06T01:05:41.264Z,1.83
2018-08-06T01:08:11.850Z,1.80
2018-08-06T01:10:41.816Z,2.43
2018-08-06T01:13:13.365Z,2.20
2018-08-06T01:15:44.708Z,1.93
2018-08-06T01:18:14.723Z,2.00
2018-08-06T01:20:46.225Z,1.80
2018-08-06T01:23:17.444Z,2.10
2018-08-06T01:25:48.916Z,1.93
2018-08-06T01:28:20.041Z,2.80
2018-08-06T01:30:50.485Z,1.90
2018-08-06T01:33:22.146Z,1.73
2018-08-06T01:35:54.058Z,1.87
2018-08-06T01:38:24.004Z,2.43
2018-08-06T01:40:54.044Z,2.40
2018-08-06T01:43:24.124Z,2.00
2018-08-06T01:45:54.228Z,2.07
2018-08-06T01:48:24.580Z,2.07
2018-08-06T01:50:55.625Z,2.07
2018-08-06T01:53:26.676Z,2.03
2018-08-06T01:55:56.780Z,1.70
2018-08-06T01:58:26.888Z,2.10
2018-08-06T02:00:57.381Z,2.27
2018-08-06T02:03:27.549Z,2.10
2018-08-06T02:05:59.060Z,1.90
2018-08-06T02:08:29.059Z,2.33
2018-08-06T02:10:59.132Z,2.00
2018-08-06T02:13:29.317Z,2.33
2018-08-06T02:16:00.616Z,2.20
2018-08-06T02:18:30.837Z,2.23
2018-08-06T02:21:01.890Z,2.23
2018-08-06T02:23:31.994Z,2.13
2018-08-06T02:26:02.019Z,2.53
2018-08-06T02:28:33.575Z,2.20
2018-08-06T02:31:03.773Z,2.60
2018-08-06T02:33:33.695Z,2.80
2018-08-06T02:36:05.276Z,2.20
2018-08-06T02:38:35.325Z,2.50
2018-08-06T02:41:05.307Z,2.73
2018-08-06T02:43:35.310Z,1.83
2018-08-06T02:46:05.417Z,2.23
2018-08-06T02:48:35.441Z,2.67
2018-08-06T02:51:05.530Z,2.37
2018-08-06T02:53:35.961Z,2.50
2018-08-06T02:56:06.271Z,2.57
2018-08-06T02:58:36.221Z,2.57
2018-08-06T03:01:06.296Z,2.53
2018-08-06T03:03:36.289Z,2.77
2018-08-06T03:06:07.245Z,2.57
2018-08-06T03:08:38.797Z,2.80
2018-08-06T03:11:08.783Z,2.60
2018-08-06T03:13:38.796Z,2.60
2018-08-06T03:16:08.872Z,2.70
2018-08-06T03:18:39.036Z,2.67
2018-08-06T03:21:09.113Z,2.80
2018-08-06T03:23:40.720Z,2.73
2018-08-06T03:26:13.178Z,2.97
2018-08-06T03:28:43.357Z,3.13
2018-08-06T03:31:15.656Z,2.73
2018-08-06T03:33:48.015Z,2.67
2018-08-06T03:36:18.435Z,3.23
2018-08-06T03:38:50.779Z,3.07
2018-08-06T03:41:22.855Z,2.97
2018-08-06T03:43:53.272Z,3.00
2018-08-06T03:46:23.474Z,2.70
2018-08-06T03:48:53.590Z,3.20
2018-08-06T03:51:23.592Z,3.10
2018-08-06T03:53:54.200Z,2.93
2018-08-06T03:56:24.584Z,3.07
2018-08-06T03:58:56.486Z,2.83
2018-08-06T04:01:27.935Z,2.93
2018-08-06T04:03:58.929Z,3.30
2018-08-06T04:06:29.047Z,3.00
2018-08-06T04:09:01.246Z,3.60
2018-08-06T04:11:31.992Z,3.10
2018-08-06T04:14:02.640Z,2.90
2018-08-06T04:16:39.574Z,3.67
2018-08-06T04:19:10.469Z,2.90
2018-08-06T04:21:41.701Z,3.20
2018-08-06T04:24:13.185Z,2.73
2018-08-06T04:26:45.010Z,3.07
2018-08-06T04:29:17.049Z,3.13
2018-08-06T04:31:47.018Z,2.87
2018-08-06T04:34:18.488Z,3.27
2018-08-06T04:36:49.013Z,3.00
2018-08-06T04:39:18.929Z,3.20
2018-08-06T04:41:48.849Z,3.17
2018-08-06T04:44:18.865Z,3.03
2018-08-06T04:46:50.315Z,3.47
2018-08-06T04:49:20.390Z,3.77
2018-08-06T04:51:50.052Z,2.97
2018-08-06T04:54:20.118Z,3.53
2018-08-06T04:56:50.153Z,3.37
2018-08-06T04:59:20.316Z,3.07
2018-08-06T05:01:50.320Z,3.67
2018-08-06T05:04:20.400Z,2.83
2018-08-06T05:06:51.111Z,3.30
2018-08-06T05:09:24.145Z,3.07
2018-08-06T05:11:54.136Z,3.40
2018-08-06T05:14:24.151Z,3.13
2018-08-06T05:16:56.500Z,3.13
2018-08-06T05:19:26.631Z,3.23
2018-08-06T05:21:57.918Z,3.47
2018-08-06T05:24:28.249Z,3.43
2018-08-06T05:26:58.593Z,3.77
2018-08-06T05:29:28.634Z,2.70
2018-08-06T05:31:58.802Z,3.00
2018-08-06T05:34:28.776Z,3.20
2018-08-06T05:36:58.821Z,3.73
2018-08-06T05:39:28.892Z,3.33
2018-08-06T05:41:58.929Z,3.63
2018-08-06T05:44:29.139Z,3.10
2018-08-06T05:46:59.189Z,2.80
2018-08-06T05:49:29.332Z,3.93
2018-08-06T05:51:59.328Z,3.23
2018-08-06T05:54:29.473Z,3.47
2018-08-06T05:56:59.544Z,3.07
2018-08-06T05:59:29.650Z,2.90
2018-08-06T06:01:59.715Z,3.20
2018-08-06T06:04:29.798Z,3.27
2018-08-06T06:06:59.916Z,3.70
2018-08-06T06:09:29.930Z,3.30
2018-08-06T06:12:00.103Z,3.43
2018-08-06T06:14:30.075Z,3.20
2018-08-06T06:17:00.237Z,2.93
2018-08-06T06:19:30.345Z,3.57
2018-08-06T06:22:00.331Z,3.80
2018-08-06T06:24:30.457Z,3.20
2018-08-06T06:27:00.620Z,4.10
2018-08-06T06:29:30.761Z,3.07
2018-08-06T06:32:00.716Z,3.20
2018-08-06T06:34:30.782Z,3.77
2018-08-06T06:37:00.850Z,3.60
2018-08-06T06:39:30.969Z,3.47
2018-08-06T06:42:00.976Z,3.77
2018-08-06T06:44:31.046Z,3.80
2018-08-06T06:47:01.004Z,4.00
2018-08-06T06:49:31.089Z,3.83
2018-08-06T06:52:01.049Z,4.10
2018-08-06T06:54:31.295Z,4.03
2018-08-06T06:57:01.262Z,3.67
2018-08-06T06:59:31.301Z,3.40
2018-08-06T07:02:01.328Z,3.73
2018-08-06T07:04:31.401Z,4.77
2018-08-06T07:07:01.458Z,4.40
2018-08-06T07:09:31.476Z,4.30
2018-08-06T07:12:01.560Z,4.17
2018-08-06T07:14:31.613Z,4.53
2018-08-06T07:17:01.537Z,4.47
2018-08-06T07:19:31.668Z,4.03
2018-08-06T07:22:01.770Z,3.73
2018-08-06T07:24:31.700Z,3.73
2018-08-06T07:27:01.741Z,3.63
2018-08-06T07:29:31.636Z,4.57
2018-08-06T07:32:01.637Z,3.93
2018-08-06T07:34:31.640Z,3.90
2018-08-06T07:37:01.735Z,4.30
2018-08-06T07:39:31.700Z,4.50
2018-08-06T07:42:01.725Z,4.57
2018-08-06T07:44:31.782Z,4.43
2018-08-06T07:47:01.519Z,4.20
2018-08-06T07:49:31.251Z,4.37
2018-08-06T07:52:00.869Z,4.97
2018-08-06T07:54:30.625Z,4.73
2018-08-06T07:57:00.289Z,4.93
2018-08-06T07:59:29.940Z,4.50
2018-08-06T08:01:59.569Z,4.90
2018-08-06T08:04:29.282Z,4.90
2018-08-06T08:06:58.993Z,5.47
2018-08-06T08:09:28.787Z,4.53
2018-08-06T08:11:58.543Z,4.20
2018-08-06T08:14:28.152Z,4.37
2018-08-06T08:16:57.823Z,5.17
2018-08-06T08:19:27.511Z,4.53
2018-08-06T08:21:57.164Z,4.77
2018-08-06T08:24:26.917Z,5.20
2018-08-06T08:26:56.617Z,4.87
2018-08-06T08:29:26.353Z,5.00
2018-08-06T08:31:56.056Z,4.63
2018-08-06T08:34:25.796Z,5.57
2018-08-06T08:36:55.481Z,5.03
2018-08-06T08:39:25.171Z,4.80
2018-08-06T08:41:54.855Z,4.43
2018-08-06T08:44:24.522Z,5.13
2018-08-06T08:46:54.197Z,4.53
2018-08-06T08:49:23.911Z,5.17
2018-08-06T08:51:53.589Z,5.50
2018-08-06T08:54:23.241Z,4.70
2018-08-06T08:56:52.928Z,5.07
2018-08-06T08:59:22.590Z,5.17
2018-08-06T09:01:52.264Z,4.77
2018-08-06T09:04:21.929Z,4.17
2018-08-06T09:06:51.591Z,4.73
2018-08-06T09:09:21.304Z,4.53
2018-08-06T09:11:50.997Z,4.60
2018-08-06T09:14:20.652Z,4.50
2018-08-06T09:16:50.349Z,4.40
2018-08-06T09:19:20.002Z,3.83
2018-08-06T09:21:49.654Z,4.37
2018-08-06T09:24:19.348Z,4.67
2018-08-06T09:26:49.076Z,4.27
2018-08-06T09:29:18.768Z,3.80
2018-08-06T09:31:48.517Z,4.10
2018-08-06T09:34:18.189Z,3.60
2018-08-06T09:36:47.902Z,4.10
2018-08-06T09:39:24.093Z,4.13
2018-08-06T09:41:53.857Z,3.70
2018-08-06T09:44:23.594Z,4.33
2018-08-06T09:46:53.334Z,4.17
2018-08-06T09:49:23.012Z,4.13
2018-08-06T09:51:52.859Z,4.30
2018-08-06T09:54:22.522Z,3.83
2018-08-06T09:56:52.228Z,3.83
2018-08-06T09:59:21.868Z,4.50
2018-08-06T10:01:58.805Z,3.70
2018-08-06T10:04:28.776Z,4.47
2018-08-06T10:06:58.428Z,3.90
2018-08-06T10:09:28.193Z,3.90
2018-08-06T10:11:57.905Z,3.67
2018-08-06T10:14:27.641Z,4.40
2018-08-06T10:16:57.330Z,3.67
2018-08-06T10:19:27.210Z,3.60
2018-08-06T10:21:56.889Z,3.53
2018-08-06T10:24:26.622Z,4.00
2018-08-06T10:26:56.693Z,3.60
2018-08-06T10:29:26.525Z,3.40
2018-08-06T10:31:56.237Z,3.90
2018-08-06T10:34:25.904Z,3.63
2018-08-06T10:36:55.855Z,3.53
2018-08-06T10:39:25.649Z,4.20
2018-08-06T10:41:55.362Z,3.40
2018-08-06T10:44:24.988Z,3.83
2018-08-06T10:46:54.700Z,3.60
2018-08-06T10:49:24.661Z,3.67
2018-08-06T10:51:54.697Z,3.53
2018-08-06T10:54:24.806Z,3.60
2018-08-06T10:56:54.927Z,3.50
2018-08-06T10:59:25.487Z,3.33
2018-08-06T11:01:55.609Z,3.27
2018-08-06T11:04:25.581Z,3.80
2018-08-06T11:06:55.624Z,3.70
2018-08-06T11:09:25.689Z,3.80
2018-08-06T11:11:55.855Z,3.60
2018-08-06T11:14:26.073Z,4.17
2018-08-06T11:16:56.006Z,3.65
2018-08-06T11:19:26.036Z,3.22
2018-08-06T11:21:56.125Z,3.67
2018-08-06T11:24:26.332Z,3.02
2018-08-06T11:26:56.472Z,3.72
2018-08-06T11:29:27.501Z,3.25
2018-08-06T11:31:57.536Z,3.33
2018-08-06T11:34:27.586Z,3.30
2018-08-06T11:36:57.469Z,3.80
2018-08-06T11:39:27.569Z,3.58
2018-08-06T11:41:57.602Z,3.62
2018-08-06T11:44:27.640Z,3.75
2018-08-06T11:46:57.734Z,3.83
2018-08-06T11:49:28.161Z,3.45
2018-08-06T11:51:58.271Z,3.67
2018-08-06T11:54:28.566Z,3.75
2018-08-06T11:56:58.653Z,3.83
2018-08-06T11:59:28.853Z,3.40
2018-08-06T12:01:58.878Z,3.27
2018-08-06T12:04:28.772Z,3.72
2018-08-06T12:06:58.952Z,3.45
2018-08-06T12:09:29.108Z,3.10
2018-08-06T12:11:59.303Z,4.08
2018-08-06T12:14:29.448Z,3.90
2018-08-06T12:16:59.468Z,3.22
2018-08-06T12:19:29.324Z,3.83
2018-08-06T12:21:59.314Z,3.45
2018-08-06T12:24:29.445Z,3.37
2018-08-06T12:26:59.613Z,3.08
2018-08-06T12:29:29.690Z,2.75
2018-08-06T12:31:59.844Z,3.58
2018-08-06T12:34:29.823Z,2.95
2018-08-06T12:36:59.904Z,2.80
2018-08-06T12:39:30.020Z,2.75
2018-08-06T12:42:00.083Z,2.60
2018-08-06T12:44:30.100Z,2.67
2018-08-06T12:46:59.764Z,3.00
2018-08-06T12:49:29.407Z,2.33
2018-08-06T12:51:59.058Z,2.50
2018-08-06T12:54:28.796Z,2.20
2018-08-06T12:56:58.768Z,2.65
2018-08-06T12:59:28.868Z,2.40
2018-08-06T13:01:58.898Z,2.33
2018-08-06T13:04:28.632Z,2.33
2018-08-06T13:06:58.336Z,2.50
2018-08-06T13:09:28.115Z,2.40
2018-08-06T13:11:58.248Z,2.22
2018-08-06T13:14:27.989Z,1.98
2018-08-06T13:16:57.674Z,2.00
2018-08-06T13:19:27.538Z,2.17
2018-08-06T13:21:57.405Z,2.08
2018-08-06T13:24:27.412Z,2.15
2018-08-06T13:26:57.036Z,2.33
2018-08-06T13:29:26.828Z,2.37
2018-08-06T13:31:56.840Z,2.72
2018-08-06T13:34:26.976Z,2.60
2018-08-06T13:36:56.868Z,2.58
2018-08-06T13:39:26.953Z,3.25
2018-08-06T13:41:57.029Z,3.80
2018-08-06T13:44:27.185Z,2.90
2018-08-06T13:46:57.276Z,2.92
2018-08-06T13:49:27.387Z,2.87
2018-08-06T13:51:57.429Z,3.05
2018-08-06T13:54:27.542Z,3.00
2018-08-06T13:56:57.699Z,3.83
2018-08-06T13:59:27.843Z,3.08
2018-08-06T14:01:57.889Z,3.47
2018-08-06T14:04:27.934Z,3.10
2018-08-06T14:06:58.031Z,3.05
2018-08-06T14:09:28.060Z,3.62
2018-08-06T14:11:58.164Z,3.37
2018-08-06T14:14:28.203Z,3.67
2018-08-06T14:16:58.418Z,3.35
2018-08-06T14:19:28.422Z,3.60
2018-08-06T14:21:58.441Z,3.65
2018-08-06T14:24:28.445Z,3.47
2018-08-06T14:26:58.376Z,3.22
2018-08-06T14:29:28.482Z,3.08
2018-08-06T14:31:58.575Z,3.00
2018-08-06T14:34:28.641Z,3.05
2018-08-06T14:36:58.699Z,3.25
2018-08-06T14:39:28.574Z,3.02
2018-08-06T14:41:58.492Z,3.47
2018-08-06T14:44:28.598Z,3.40
2018-08-06T14:46:58.521Z,3.42
2018-08-06T14:49:28.558Z,3.40
2018-08-06T14:51:58.758Z,3.33
2018-08-06T14:54:28.868Z,3.75
2018-08-06T14:56:58.908Z,3.27
2018-08-06T14:59:28.940Z,3.12
2018-08-06T15:01:59.092Z,3.75
2018-08-06T15:04:29.267Z,3.42
2018-08-06T15:06:59.232Z,3.58
2018-08-06T15:09:29.294Z,3.70
2018-08-06T15:11:59.310Z,3.35
2018-08-06T15:14:29.394Z,3.80
2018-08-06T15:16:59.446Z,4.00
2018-08-06T15:19:29.574Z,3.90
2018-08-06T15:21:59.481Z,3.20
2018-08-06T15:24:29.667Z,3.33
2018-08-06T15:26:59.730Z,3.58
2018-08-06T15:29:29.660Z,3.10
2018-08-06T15:31:59.780Z,3.95
2018-08-06T15:34:29.848Z,3.55
2018-08-06T15:36:59.892Z,3.10
2018-08-06T15:39:29.921Z,3.50
2018-08-06T15:41:59.925Z,4.22
2018-08-06T15:44:29.979Z,3.30
2018-08-06T15:47:00.067Z,3.50
2018-08-06T15:49:30.107Z,3.50
2018-08-06T15:52:00.274Z,3.45
2018-08-06T15:54:30.221Z,3.40
2018-08-06T15:57:00.159Z,3.58
2018-08-06T15:59:30.263Z,3.80
2018-08-06T16:02:00.285Z,3.83
2018-08-06T16:04:30.308Z,3.47
2018-08-06T16:07:00.481Z,3.52
2018-08-06T16:09:30.532Z,4.05
2018-08-06T16:12:00.621Z,3.77
2018-08-06T16:14:30.462Z,4.25
2018-08-06T16:17:00.551Z,3.33
2018-08-06T16:19:30.525Z,3.90
2018-08-06T16:22:00.524Z,3.72
2018-08-06T16:24:30.553Z,3.80
2018-08-06T16:27:00.568Z,3.50
2018-08-06T16:29:30.492Z,3.75
2018-08-06T16:32:00.590Z,3.30
2018-08-06T16:34:30.426Z,3.50
2018-08-06T16:37:00.428Z,3.37
2018-08-06T16:39:30.457Z,3.35
2018-08-06T16:42:00.628Z,3.20
2018-08-06T16:44:30.697Z,3.30
2018-08-06T16:47:00.761Z,3.90
2018-08-06T16:49:30.726Z,3.60
2018-08-06T16:52:00.752Z,3.13
2018-08-06T16:54:30.766Z,3.70
2018-08-06T16:57:00.793Z,3.70
2018-08-06T16:59:30.897Z,3.57
2018-08-06T17:02:00.876Z,3.50
2018-08-06T17:04:30.928Z,3.50
2018-08-06T17:07:01.189Z,3.60
2018-08-06T17:09:31.205Z,3.60
2018-08-06T17:12:01.295Z,2.97
2018-08-06T17:14:31.436Z,3.67
2018-08-06T17:17:01.598Z,3.93
2018-08-06T17:19:31.665Z,3.70
2018-08-06T17:22:01.670Z,3.63
2018-08-06T17:24:31.796Z,3.60
2018-08-06T17:27:01.930Z,3.67
2018-08-06T17:29:32.063Z,3.73
2018-08-06T17:32:02.074Z,3.40
2018-08-06T17:34:32.615Z,3.70
2018-08-06T17:37:02.782Z,3.23
2018-08-06T17:39:32.864Z,3.30
2018-08-06T17:42:03.323Z,3.80
2018-08-06T17:44:33.590Z,3.37
2018-08-06T17:47:03.736Z,3.03
2018-08-06T17:49:33.755Z,3.17
2018-08-06T17:52:04.005Z,3.67
2018-08-06T17:54:34.080Z,2.90
2018-08-06T17:57:04.222Z,3.70
2018-08-06T17:59:34.325Z,3.23
2018-08-06T18:02:04.331Z,3.50
2018-08-06T18:04:34.747Z,3.30
2018-08-06T18:07:05.324Z,3.83
2018-08-06T18:09:35.375Z,2.60
2018-08-06T18:12:05.323Z,2.90
2018-08-06T18:14:35.388Z,2.73
2018-08-06T18:17:05.037Z,3.47
2018-08-06T18:19:34.863Z,3.20
2018-08-06T18:22:04.892Z,3.03
2018-08-06T18:24:34.820Z,3.30
2018-08-06T18:27:05.186Z,3.30
2018-08-06T18:29:35.273Z,3.70
2018-08-06T18:32:05.421Z,3.77
2018-08-06T18:34:35.604Z,3.30
2018-08-06T18:37:06.020Z,3.30
2018-08-06T18:39:36.215Z,3.47
2018-08-06T18:42:06.149Z,3.20
2018-08-06T18:44:36.206Z,3.20
2018-08-06T18:47:06.913Z,3.50
2018-08-06T18:49:36.812Z,3.23
2018-08-06T18:52:06.979Z,3.60
2018-08-06T18:54:36.960Z,3.17
2018-08-06T18:57:07.296Z,3.13
2018-08-06T18:59:37.459Z,3.77
2018-08-06T19:02:07.630Z,3.30
2018-08-06T19:04:37.747Z,2.93
2018-08-06T19:07:08.062Z,2.70
2018-08-06T19:09:38.248Z,2.47
2018-08-06T19:12:13.193Z,3.20
2018-08-06T19:14:43.217Z,3.43
2018-08-06T19:17:13.277Z,2.63
2018-08-06T19:19:43.445Z,3.03
2018-08-06T19:22:13.727Z,3.03
2018-08-06T19:24:49.862Z,3.30
2018-08-06T19:27:20.169Z,3.23
2018-08-06T19:29:50.432Z,3.37
2018-08-06T19:32:20.496Z,2.93
2018-08-06T19:34:51.297Z,3.07
2018-08-06T19:37:26.734Z,3.93
2018-08-06T19:39:56.854Z,3.57
2018-08-06T19:42:30.890Z,3.43
2018-08-06T19:45:00.844Z,3.47
2018-08-06T19:47:30.922Z,3.20
2018-08-06T19:50:06.537Z,2.87
2018-08-06T19:52:36.768Z,2.70
2018-08-06T19:55:12.746Z,3.63
2018-08-06T19:57:43.207Z,3.10
2018-08-06T20:00:14.235Z,3.60
2018-08-06T20:02:46.179Z,3.43
2018-08-06T20:05:18.277Z,3.40
2018-08-06T20:07:48.508Z,2.80
2018-08-06T20:10:18.598Z,3.13
2018-08-06T20:12:48.594Z,2.93
2018-08-06T20:15:19.777Z,3.60
2018-08-06T20:17:50.756Z,3.47
2018-08-06T20:20:20.788Z,3.67
2018-08-06T20:22:50.705Z,3.43
2018-08-06T20:25:21.711Z,3.10
2018-08-06T20:27:52.353Z,3.73
2018-08-06T20:30:23.192Z,3.50
2018-08-06T20:32:54.838Z,3.20
2018-08-06T20:35:25.259Z,3.30
2018-08-06T20:37:55.311Z,3.13
2018-08-06T20:40:25.436Z,3.40
2018-08-06T20:42:55.441Z,3.30
2018-08-06T20:45:25.496Z,3.40
2018-08-06T20:47:56.992Z,3.20
2018-08-06T20:50:27.256Z,3.17
2018-08-06T20:52:59.387Z,3.13
2018-08-06T20:55:29.777Z,2.93
2018-08-06T20:57:59.962Z,3.83
2018-08-06T21:00:30.540Z,3.13
2018-08-06T21:03:00.704Z,3.20
2018-08-06T21:05:37.065Z,3.33
2018-08-06T21:08:07.676Z,3.50
2018-08-06T21:10:38.336Z,3.40
2018-08-06T21:13:08.516Z,3.70
2018-08-06T21:15:39.016Z,3.30
2018-08-06T21:18:09.021Z,3.97
2018-08-06T21:20:39.456Z,3.63
2018-08-06T21:23:09.789Z,3.13
2018-08-06T21:25:39.911Z,4.30
2018-08-06T21:28:09.937Z,4.63
2018-08-06T21:30:40.134Z,4.50
2018-08-06T21:33:10.138Z,3.97
2018-08-06T21:35:42.421Z,4.53
2018-08-06T21:38:14.752Z,4.27
2018-08-06T21:40:46.241Z,4.20
2018-08-06T21:43:17.084Z,4.43
2018-08-06T21:45:48.115Z,5.20
2018-08-06T21:48:20.546Z,4.50
2018-08-06T21:50:50.825Z,4.13
2018-08-06T21:53:20.998Z,4.67
2018-08-06T21:55:52.075Z,4.57
2018-08-06T21:58:22.249Z,4.63
2018-08-06T22:00:52.225Z,4.30
2018-08-06T22:03:22.239Z,4.20
2018-08-06T22:05:52.437Z,4.20
2018-08-06T22:08:22.376Z,4.10
2018-08-06T22:10:52.544Z,4.40
2018-08-06T22:13:22.402Z,4.60
2018-08-06T22:15:52.325Z,5.10
2018-08-06T22:18:22.514Z,4.43
2018-08-06T22:20:52.352Z,4.90
2018-08-06T22:23:22.161Z,4.13
2018-08-06T22:25:52.448Z,4.73
2018-08-06T22:28:22.423Z,4.60
2018-08-06T22:30:52.621Z,4.73
2018-08-06T22:33:23.128Z,5.00
2018-08-06T22:35:53.321Z,5.10
2018-08-06T22:38:23.361Z,4.93
2018-08-06T22:40:54.610Z,4.90
2018-08-06T22:43:24.886Z,4.63
2018-08-06T22:45:56.032Z,4.73
2018-08-06T22:48:34.201Z,5.40
2018-08-06T22:51:04.456Z,5.40
2018-08-06T22:53:34.543Z,4.87
2018-08-06T22:56:09.627Z,4.53
2018-08-06T22:58:40.102Z,5.00
2018-08-06T23:01:12.402Z,5.03
2018-08-06T23:03:45.175Z,4.67
2018-08-06T23:06:17.928Z,4.23
2018-08-06T23:08:50.915Z,4.67
2018-08-06T23:11:22.154Z,4.00
2018-08-06T23:13:54.001Z,4.30
2018-08-06T23:16:25.994Z,4.07
2018-08-06T23:18:56.242Z,5.10
2018-08-06T23:21:26.287Z,4.83
2018-08-06T23:23:56.307Z,4.07
2018-08-06T23:26:26.478Z,4.77
2018-08-06T23:28:56.543Z,4.10
2018-08-06T23:31:26.664Z,4.60
2018-08-06T23:33:57.049Z,4.97
2018-08-06T23:36:27.408Z,4.57
2018-08-06T23:38:57.491Z,4.87
2018-08-06T23:41:27.555Z,4.33
2018-08-06T23:43:57.731Z,4.87
2018-08-06T23:46:27.787Z,4.90
2018-08-06T23:48:58.087Z,5.57
2018-08-06T23:51:28.192Z,5.07
2018-08-06T23:53:58.257Z,4.93
2018-08-06T23:56:28.381Z,4.60
2018-08-06T23:58:58.509Z,4.47
